AirNav   ATP
 
 1460 users online  

CT74 Westford Airstrip
Ashford/Westford, Connecticut, USA

GOING TO ASHFORD/WESTFORD?


FAA INFORMATION EFFECTIVE 14 SEPTEMBER 2017

Location

FAA Identifier: CT74
Lat/Long: 41-57-02.3480N / 072-10-53.2780W
41-57.039133N / 072-10.887967W
41.9506522 / -72.1814661
(estimated)
Elevation: 900 ft. / 274 m (estimated)
Variation: 15W (1985)
From city: 2 miles N of central business district of the associated city
Time zone: UTC -4 (UTC -5 during Standard Time)
Zip code: 06278

Airport Operations

Airport use: Private use. Permission required prior to landing
Activation date: 12/1977
Control tower: no
ARTCC: BOSTON CENTER
FSS: BRIDGEPORT FLIGHT SERVICE STATION
Attendance: UNATNDD
Wind indicator: yes
Segmented circle: no

Airport Communications

WX ASOS at IJD (12 nm S): 133.675 (860-456-8839)
WX AWOS-3 at LZD (15 nm SE): 119.125 (860-779-7251)

Nearby radio navigation aids

VOR radial/distance  VOR name  Freq  Var
PUTr283/15.1PUTNAM VOR/DME117.4014W
CEFr148/21.3WESTOVER VORTAC114.0014W
HFDr054/24.8HARTFORD VOR/DME114.9013W
ORWr355/25.0NORWICH VOR/DME110.0014W
BAFr132/27.0BARNES VORTAC113.0014W
GDMr203/36.1GARDNER VOR/DME110.6014W
PVDr306/36.2PROVIDENCE VOR/DME115.6014W
GONr005/37.7GROTON VOR/DME110.8514W
CTRr134/39.8CHESTER VOR/DME115.1013W

Airport Services

Runway Information

Runway N/S

Dimensions: 1300 x 200 ft. / 396 x 61 m
Surface: turf
RUNWAY N  RUNWAY S
Traffic pattern: leftleft

Airport Ownership and Management from official FAA records

Ownership: Privately-owned
Owner: CHARLES J. WOYTIK
343 WATERFALL RD.
ASHFORD, CT 06278
Phone (860) 487-4392
Manager: DANIEL J BRNDIAR
61 LEADMINE RD
ASHFORD, CT 06278
Phone 860-487-4392

Airport Operational Statistics

Aircraft based on the field: 2
Single engine airplanes: 1
Ultralights: 1
    

Instrument Procedures

There are no published instrument procedures at CT74.

Some nearby airports with instrument procedures:

3B0 - Southbridge Municipal Airport (11 nm NE)
KIJD - Windham Airport (12 nm S)
KLZD - Danielson Airport (15 nm SE)
KCEF - Westover Air Reserve Base/Metropolitan Airport (21 nm NW)
KBDL - Bradley International Airport (22 nm W)
 
Loc | Ops | Rwys | IFR | FBO | Links
Com | Nav | Svcs | Stats | Notes

Silver City Flying Club
 
Area around CT74 (Westford Airstrip)
 
Road maps at: MapQuest Bing Google
 
Aerial photo
No photo
 
Sectional chart

 
Airport distance calculator
Flying to Westford Airstrip? Find the distance to fly.

From to CT74

Sunrise and sunset
Times for 20-Sep-2017
 Local
(UTC-4)
 Zulu
(UTC)
Morning civil twilight06:0710:07
Sunrise06:3510:35
Sunset18:4922:49
Evening civil twilight19:1723:17

Current date and time
Zulu (UTC)  20-Sep-2017 21:11:56
Local (UTC-4)  20-Sep-2017 17:11:56
 
METAR
KIJD 
12nm S 
202052Z AUTO 02011G16KT 10SM OVC020 23/19 A2986 RMK AO2 SLP110 T02330194 53005
KCEF 
21nm NW 
202058Z 04016KT 10SM SCT029 BKN045 OVC080 24/18 A2988 RMK AO2A SLP123 T02410175 55001
KBDL 
22nm W 
202051Z 36013KT 10SM BKN033 OVC045 24/18 A2988 RMK AO2 SLP117 60000 T02440178 56001
KORH 
24nm NE 
202054Z 02013G21KT 10SM SCT005 BKN009 OVC020 19/18 A2991 RMK AO2 RAE32 SLP127 P0001 60001 T01940178 53004
TAF
KCEF 
21nm NW 
201800Z 2018/2124 02015G25KT 9999 BKN020 OVC040 QNH2986INS BECMG 2022/2023 01009KT 9999 BKN020 QNH2989INS BECMG 2106/2107 01009KT 9999 BKN015 OVC025 QNH2994INS BECMG 2112/2113 01010G15KT 9999 SCT015 QNH3002INS TEMPO 2114/2120 01015G25KT BECMG 2122/2123 02006KT 9999 OVC250 QNH3003INS TX24/2018Z TN20/2111Z
KBDL 
22nm W 
201727Z 2018/2124 01011G25KT P6SM OVC025 FM202100 01009G19KT P6SM BKN035 FM202300 01008KT P6SM OVC035 FM211200 36009G20KT P6SM BKN035 FM211600 01013G25KT P6SM BKN100
KORH 
24nm NE 
201727Z 2018/2118 02010G21KT 2SM -SHRA BR OVC004 FM202300 02010G20KT 6SM BR OVC008 FM210500 01009G21KT P6SM OVC008 FM211400 02013G25KT P6SM OVC020 FM211600 02013G28KT P6SM BKN070
NOTAMs
Click for the latest NOTAMs
NOTAMs are issued by the DoD/FAA and will open in a separate window not controlled by AirNav.

 

 
 

Would you like to see your business listed on this page?

 If your business provides an interesting product or service to pilots, flight crews, aircraft, or users of the Westford Airstrip, you should consider listing it here.  To start the listing process, click on the button below
 
Add a business
 

Other Pages about Westford Airstrip

Update a link
 
Copyright © AirNav, LLC. All rights reserved. Privacy Policy  Contact